Terminal Aerodrome Forecast
Issued by NWS

Home | Current Version | Previous Version | Text Only | Print | Product List | Glossary On
Versions: 1 2 3 4 5 6 7 8 9 10 11 12
000
FTUS43 KEAX 301728
TAFMKC
TAF
KMKC 301728Z 3018/0118 35006KT P6SM SKC
      TEMPO 3018/3021 SCT030
     FM011000 VRB03KT P6SM BKN018
     FM011600 02004KT P6SM BKN023=

USA.gov is the U.S. government's official web portal to all federal, state and local government web resources and services.